Overton, United Kingdom
Current Conditions -  °F | °C
As of 5:50 AM on Sunday 23 Nov 2014 (Local Time) from EGVO Reporting Station
Moderate Rain Moderate Rain  
Wind Chill: 44°   Ceiling: 2700
Heat Index: 48°   Visibility: 5mi
Dew Point: 48°   Wind: 10mph
Humidity: 100%   Direction: 340°NNW
Pressure: 29.97"   Gusts: NA
Location:  51.24°N, 1.26°W
Report Text: EGVO 230550Z 34009KT 8000 RA SCT003 BKN027 OVC048 09/09 Q1015 YLO2
Loading
Personal Weather Stations






























Interactive Weather Map New forecast layout! Learn more

10-Day Weather Forecast

Advertisements
Track Severe Weather on mobile